sensor_id;sensor_type;location;lat;lon;timestamp;temperature;humidity
23803;DHT22;12082;51.786;6.018;2023-08-01T00:00:00;16.00;99.90
23803;DHT22;12082;51.786;6.018;2023-08-01T00:02:26;15.90;99.90
23803;DHT22;12082;51.786;6.018;2023-08-01T00:04:52;16.00;99.90
23803;DHT22;12082;51.786;6.018;2023-08-01T00:07:17;15.90;99.90
23803;DHT22;12082;51.786;6.018;2023-08-01T00:09:43;15.90;99.90
23803;DHT22;12082;51.786;6.018;2023-08-01T00:12:08;15.90;99.90
23803;DHT22;12082;51.786;6.018;2023-08-01T00:14:36;15.90;99.90
23803;DHT22;12082;51.786;6.018;2023-08-01T00:17:01;15.90;99.90
23803;DHT22;12082;51.786;6.018;2023-08-01T00:19:28;15.90;99.90
23803;DHT22;12082;51.786;6.018;2023-08-01T00:21:53;15.90;99.90
23803;DHT22;12082;51.786;6.018;2023-08-01T00:24:19;15.90;99.90
23803;DHT22;12082;51.786;6.018;2023-08-01T00:26:45;15.90;99.90
23803;DHT22;12082;51.786;6.018;2023-08-01T00:29:10;15.90;99.90
23803;DHT22;12082;51.786;6.018;2023-08-01T00:31:36;15.90;99.90
23803;DHT22;12082;51.786;6.018;2023-08-01T00:34:01;16.00;99.90
23803;DHT22;12082;51.786;6.018;2023-08-01T00:36:27;15.90;99.90
23803;DHT22;12082;51.786;6.018;2023-08-01T00:38:52;15.90;99.90
23803;DHT22;12082;51.786;6.018;2023-08-01T00:41:18;15.90;99.90
23803;DHT22;12082;51.786;6.018;2023-08-01T00:43:43;15.80;99.90
23803;DHT22;12082;51.786;6.018;2023-08-01T00:46:09;15.90;99.90
23803;DHT22;12082;51.786;6.018;2023-08-01T00:48:35;15.90;99.90
23803;DHT22;12082;51.786;6.018;2023-08-01T00:51:04;15.80;99.90
23803;DHT22;12082;51.786;6.018;2023-08-01T00:53:30;15.90;99.90
23803;DHT22;12082;51.786;6.018;2023-08-01T00:55:57;15.90;99.90
23803;DHT22;12082;51.786;6.018;2023-08-01T00:58:23;15.90;99.90
23803;DHT22;12082;51.786;6.018;2023-08-01T01:00:49;15.80;99.90
23803;DHT22;12082;51.786;6.018;2023-08-01T01:03:15;15.80;99.90
23803;DHT22;12082;51.786;6.018;2023-08-01T01:05:49;15.90;99.90
23803;DHT22;12082;51.786;6.018;2023-08-01T01:08:17;15.80;99.90
23803;DHT22;12082;51.786;6.018;2023-08-01T01:10:43;15.80;99.90
23803;DHT22;12082;51.786;6.018;2023-08-01T01:13:08;15.80;99.90
23803;DHT22;12082;51.786;6.018;2023-08-01T01:15:34;15.70;99.90
23803;DHT22;12082;51.786;6.018;2023-08-01T01:17:59;15.80;99.90
23803;DHT22;12082;51.786;6.018;2023-08-01T01:20:25;15.70;99.90
23803;DHT22;12082;51.786;6.018;2023-08-01T01:22:52;15.70;99.90
23803;DHT22;12082;51.786;6.018;2023-08-01T01:25:20;15.60;99.90
23803;DHT22;12082;51.786;6.018;2023-08-01T01:27:47;15.60;99.90
23803;DHT22;12082;51.786;6.018;2023-08-01T01:30:13;15.70;99.90
23803;DHT22;12082;51.786;6.018;2023-08-01T01:32:39;15.60;99.90
23803;DHT22;12082;51.786;6.018;2023-08-01T01:35:05;15.60;99.90
23803;DHT22;12082;51.786;6.018;2023-08-01T01:37:31;15.60;99.90
23803;DHT22;12082;51.786;6.018;2023-08-01T01:39:57;15.60;99.90
23803;DHT22;12082;51.786;6.018;2023-08-01T01:42:22;15.60;99.90
23803;DHT22;12082;51.786;6.018;2023-08-01T01:44:48;15.60;99.90
23803;DHT22;12082;51.786;6.018;2023-08-01T01:47:13;15.50;99.90
23803;DHT22;12082;51.786;6.018;2023-08-01T01:49:39;15.50;99.90
23803;DHT22;12082;51.786;6.018;2023-08-01T01:52:05;15.60;99.90
23803;DHT22;12082;51.786;6.018;2023-08-01T01:54:30;15.60;99.90
23803;DHT22;12082;51.786;6.018;2023-08-01T01:56:56;15.60;99.90
23803;DHT22;12082;51.786;6.018;2023-08-01T01:59:21;15.40;99.90
23803;DHT22;12082;51.786;6.018;2023-08-01T02:01:47;15.40;99.90
23803;DHT22;12082;51.786;6.018;2023-08-01T02:04:12;15.30;99.90
23803;DHT22;12082;51.786;6.018;2023-08-01T02:06:38;15.30;99.90
23803;DHT22;12082;51.786;6.018;2023-08-01T02:09:04;15.20;99.90
23803;DHT22;12082;51.786;6.018;2023-08-01T02:11:30;15.20;99.90
23803;DHT22;12082;51.786;6.018;2023-08-01T02:13:55;15.30;99.90
23803;DHT22;12082;51.786;6.018;2023-08-01T02:16:21;15.40;99.90
23803;DHT22;12082;51.786;6.018;2023-08-01T02:18:47;15.40;99.90
23803;DHT22;12082;51.786;6.018;2023-08-01T02:21:13;15.40;99.90
23803;DHT22;12082;51.786;6.018;2023-08-01T02:23:38;15.50;99.90
23803;DHT22;12082;51.786;6.018;2023-08-01T02:26:04;15.40;99.90
23803;DHT22;12082;51.786;6.018;2023-08-01T02:28:29;15.40;99.90
23803;DHT22;12082;51.786;6.018;2023-08-01T02:30:55;15.40;99.90
23803;DHT22;12082;51.786;6.018;2023-08-01T02:33:20;15.40;99.90
23803;DHT22;12082;51.786;6.018;2023-08-01T02:35:46;15.40;99.90
23803;DHT22;12082;51.786;6.018;2023-08-01T02:38:12;15.40;99.90
23803;DHT22;12082;51.786;6.018;2023-08-01T02:40:38;15.40;99.90
23803;DHT22;12082;51.786;6.018;2023-08-01T02:43:03;15.40;99.90
23803;DHT22;12082;51.786;6.018;2023-08-01T02:45:29;15.40;99.90
23803;DHT22;12082;51.786;6.018;2023-08-01T02:47:54;15.40;99.90
23803;DHT22;12082;51.786;6.018;2023-08-01T02:50:20;15.50;99.90
23803;DHT22;12082;51.786;6.018;2023-08-01T02:52:46;15.30;99.90
23803;DHT22;12082;51.786;6.018;2023-08-01T02:55:11;15.40;99.90
23803;DHT22;12082;51.786;6.018;2023-08-01T02:57:37;15.40;99.90
23803;DHT22;12082;51.786;6.018;2023-08-01T03:00:03;15.40;99.90
23803;DHT22;12082;51.786;6.018;2023-08-01T03:02:31;15.40;99.90
23803;DHT22;12082;51.786;6.018;2023-08-01T03:04:57;15.40;99.90
23803;DHT22;12082;51.786;6.018;2023-08-01T03:07:22;15.40;99.90
23803;DHT22;12082;51.786;6.018;2023-08-01T03:09:48;15.30;99.90
23803;DHT22;12082;51.786;6.018;2023-08-01T03:12:13;15.40;99.90
23803;DHT22;12082;51.786;6.018;2023-08-01T03:14:39;15.30;99.90
23803;DHT22;12082;51.786;6.018;2023-08-01T03:17:06;15.30;99.90
23803;DHT22;12082;51.786;6.018;2023-08-01T03:19:33;15.30;99.90
23803;DHT22;12082;51.786;6.018;2023-08-01T03:21:59;15.30;99.90
23803;DHT22;12082;51.786;6.018;2023-08-01T03:24:25;15.20;99.90
23803;DHT22;12082;51.786;6.018;2023-08-01T03:26:51;15.20;99.90
23803;DHT22;12082;51.786;6.018;2023-08-01T03:29:16;15.20;99.90
23803;DHT22;12082;51.786;6.018;2023-08-01T03:31:42;15.20;99.90
23803;DHT22;12082;51.786;6.018;2023-08-01T03:34:07;15.20;99.90
23803;DHT22;12082;51.786;6.018;2023-08-01T03:36:34;15.20;99.90
23803;DHT22;12082;51.786;6.018;2023-08-01T03:39:00;15.20;99.90
23803;DHT22;12082;51.786;6.018;2023-08-01T03:41:25;15.10;99.90
23803;DHT22;12082;51.786;6.018;2023-08-01T03:43:51;15.10;99.90
23803;DHT22;12082;51.786;6.018;2023-08-01T03:46:16;15.10;99.90
23803;DHT22;12082;51.786;6.018;2023-08-01T03:48:42;15.00;99.90
23803;DHT22;12082;51.786;6.018;2023-08-01T03:51:08;15.10;99.90
23803;DHT22;12082;51.786;6.018;2023-08-01T03:53:34;15.10;99.90
23803;DHT22;12082;51.786;6.018;2023-08-01T03:55:59;15.00;99.90
23803;DHT22;12082;51.786;6.018;2023-08-01T03:58:25;15.00;99.90
23803;DHT22;12082;51.786;6.018;2023-08-01T04:00:50;15.10;99.90
23803;DHT22;12082;51.786;6.018;2023-08-01T04:03:16;15.20;99.90
23803;DHT22;12082;51.786;6.018;2023-08-01T04:05:41;15.10;99.90
23803;DHT22;12082;51.786;6.018;2023-08-01T04:08:08;15.10;99.90
23803;DHT22;12082;51.786;6.018;2023-08-01T04:10:33;15.10;99.90
23803;DHT22;12082;51.786;6.018;2023-08-01T04:12:59;15.10;99.90
23803;DHT22;12082;51.786;6.018;2023-08-01T04:15:25;15.10;99.90
23803;DHT22;12082;51.786;6.018;2023-08-01T04:17:50;15.10;99.90
23803;DHT22;12082;51.786;6.018;2023-08-01T04:20:16;15.10;99.90
23803;DHT22;12082;51.786;6.018;2023-08-01T04:22:41;15.10;99.90
23803;DHT22;12082;51.786;6.018;2023-08-01T04:25:07;15.10;99.90
23803;DHT22;12082;51.786;6.018;2023-08-01T04:27:33;15.10;99.90
23803;DHT22;12082;51.786;6.018;2023-08-01T04:29:58;15.10;99.90
23803;DHT22;12082;51.786;6.018;2023-08-01T04:32:24;15.20;99.90
23803;DHT22;12082;51.786;6.018;2023-08-01T04:34:49;15.10;99.90
23803;DHT22;12082;51.786;6.018;2023-08-01T04:37:15;15.10;99.90
23803;DHT22;12082;51.786;6.018;2023-08-01T04:39:40;15.10;99.90
23803;DHT22;12082;51.786;6.018;2023-08-01T04:42:06;15.10;99.90
23803;DHT22;12082;51.786;6.018;2023-08-01T04:44:32;15.10;99.90
23803;DHT22;12082;51.786;6.018;2023-08-01T04:46:58;15.10;99.90
23803;DHT22;12082;51.786;6.018;2023-08-01T04:49:23;15.10;99.90
23803;DHT22;12082;51.786;6.018;2023-08-01T04:51:50;15.10;99.90
23803;DHT22;12082;51.786;6.018;2023-08-01T04:54:16;15.10;99.90
23803;DHT22;12082;51.786;6.018;2023-08-01T04:56:42;15.10;99.90
23803;DHT22;12082;51.786;6.018;2023-08-01T04:59:07;15.10;99.90
23803;DHT22;12082;51.786;6.018;2023-08-01T05:01:33;15.10;99.90
23803;DHT22;12082;51.786;6.018;2023-08-01T05:03:59;15.20;99.90
23803;DHT22;12082;51.786;6.018;2023-08-01T05:06:24;15.20;99.90
23803;DHT22;12082;51.786;6.018;2023-08-01T05:08:50;15.20;99.90
23803;DHT22;12082;51.786;6.018;2023-08-01T05:11:16;15.30;99.90
23803;DHT22;12082;51.786;6.018;2023-08-01T05:13:41;15.30;99.90
23803;DHT22;12082;51.786;6.018;2023-08-01T05:16:07;15.30;99.90
23803;DHT22;12082;51.786;6.018;2023-08-01T05:18:32;15.30;99.90
23803;DHT22;12082;51.786;6.018;2023-08-01T05:20:58;15.30;99.90
23803;DHT22;12082;51.786;6.018;2023-08-01T05:23:23;15.40;99.90
23803;DHT22;12082;51.786;6.018;2023-08-01T05:25:49;15.30;99.90
23803;DHT22;12082;51.786;6.018;2023-08-01T05:28:14;15.40;99.90
23803;DHT22;12082;51.786;6.018;2023-08-01T05:30:40;15.60;99.90
23803;DHT22;12082;51.786;6.018;2023-08-01T05:33:06;15.50;99.90
23803;DHT22;12082;51.786;6.018;2023-08-01T05:35:31;15.40;99.90
23803;DHT22;12082;51.786;6.018;2023-08-01T05:37:57;15.40;99.90
23803;DHT22;12082;51.786;6.018;2023-08-01T05:40:23;15.40;99.90
23803;DHT22;12082;51.786;6.018;2023-08-01T05:42:48;15.40;99.90
23803;DHT22;12082;51.786;6.018;2023-08-01T05:45:14;15.50;99.90
23803;DHT22;12082;51.786;6.018;2023-08-01T05:47:40;15.50;99.90
23803;DHT22;12082;51.786;6.018;2023-08-01T05:50:06;15.60;99.90
23803;DHT22;12082;51.786;6.018;2023-08-01T05:52:33;15.60;99.90
23803;DHT22;12082;51.786;6.018;2023-08-01T05:54:59;15.70;99.90
23803;DHT22;12082;51.786;6.018;2023-08-01T05:57:25;15.70;99.90
23803;DHT22;12082;51.786;6.018;2023-08-01T05:59:50;15.80;99.90
23803;DHT22;12082;51.786;6.018;2023-08-01T06:02:16;15.60;99.90
23803;DHT22;12082;51.786;6.018;2023-08-01T06:04:41;15.60;99.90
23803;DHT22;12082;51.786;6.018;2023-08-01T06:07:07;15.60;99.90
23803;DHT22;12082;51.786;6.018;2023-08-01T06:09:33;15.70;99.90
23803;DHT22;12082;51.786;6.018;2023-08-01T06:11:58;15.80;99.90
23803;DHT22;12082;51.786;6.018;2023-08-01T06:14:24;16.00;99.90
23803;DHT22;12082;51.786;6.018;2023-08-01T06:16:50;15.90;99.90
23803;DHT22;12082;51.786;6.018;2023-08-01T06:19:15;16.00;99.90
23803;DHT22;12082;51.786;6.018;2023-08-01T06:21:41;16.10;99.90
23803;DHT22;12082;51.786;6.018;2023-08-01T06:24:06;16.10;99.90
23803;DHT22;12082;51.786;6.018;2023-08-01T06:26:34;16.00;99.90
23803;DHT22;12082;51.786;6.018;2023-08-01T06:28:59;16.10;99.90
23803;DHT22;12082;51.786;6.018;2023-08-01T06:31:25;16.30;99.90
23803;DHT22;12082;51.786;6.018;2023-08-01T06:33:51;16.30;99.90
23803;DHT22;12082;51.786;6.018;2023-08-01T06:36:16;16.30;99.90
23803;DHT22;12082;51.786;6.018;2023-08-01T06:38:43;16.40;99.90
23803;DHT22;12082;51.786;6.018;2023-08-01T06:41:08;16.80;99.90
23803;DHT22;12082;51.786;6.018;2023-08-01T06:43:34;16.90;99.90
23803;DHT22;12082;51.786;6.018;2023-08-01T06:46:02;16.70;99.90
23803;DHT22;12082;51.786;6.018;2023-08-01T06:48:28;16.60;99.90
23803;DHT22;12082;51.786;6.018;2023-08-01T06:50:54;16.70;99.90
23803;DHT22;12082;51.786;6.018;2023-08-01T06:53:19;16.70;99.90
23803;DHT22;12082;51.786;6.018;2023-08-01T06:55:45;17.00;99.90
23803;DHT22;12082;51.786;6.018;2023-08-01T06:58:11;17.20;99.90
23803;DHT22;12082;51.786;6.018;2023-08-01T07:00:36;17.30;99.90
23803;DHT22;12082;51.786;6.018;2023-08-01T07:03:02;17.40;99.90
23803;DHT22;12082;51.786;6.018;2023-08-01T07:05:27;17.30;99.90
23803;DHT22;12082;51.786;6.018;2023-08-01T07:07:53;17.50;99.90
23803;DHT22;12082;51.786;6.018;2023-08-01T07:10:18;17.90;99.90
23803;DHT22;12082;51.786;6.018;2023-08-01T07:12:45;18.10;99.90
23803;DHT22;12082;51.786;6.018;2023-08-01T07:15:11;18.00;99.90
23803;DHT22;12082;51.786;6.018;2023-08-01T07:17:36;17.80;99.90
23803;DHT22;12082;51.786;6.018;2023-08-01T07:20:02;17.60;99.90
23803;DHT22;12082;51.786;6.018;2023-08-01T07:22:28;17.80;99.90
23803;DHT22;12082;51.786;6.018;2023-08-01T07:24:54;18.60;99.90
23803;DHT22;12082;51.786;6.018;2023-08-01T07:27:20;18.70;99.90
23803;DHT22;12082;51.786;6.018;2023-08-01T07:29:46;18.20;99.90
23803;DHT22;12082;51.786;6.018;2023-08-01T07:32:11;18.30;99.90
23803;DHT22;12082;51.786;6.018;2023-08-01T07:34:37;17.90;99.90
23803;DHT22;12082;51.786;6.018;2023-08-01T07:37:02;18.20;99.90
23803;DHT22;12082;51.786;6.018;2023-08-01T07:39:28;18.40;99.90
23803;DHT22;12082;51.786;6.018;2023-08-01T07:41:55;18.80;99.90
23803;DHT22;12082;51.786;6.018;2023-08-01T07:44:21;19.00;99.90
23803;DHT22;12082;51.786;6.018;2023-08-01T07:46:46;18.90;99.90
23803;DHT22;12082;51.786;6.018;2023-08-01T07:49:12;18.80;99.90
23803;DHT22;12082;51.786;6.018;2023-08-01T07:51:38;18.90;99.90
23803;DHT22;12082;51.786;6.018;2023-08-01T07:54:04;18.10;99.90
23803;DHT22;12082;51.786;6.018;2023-08-01T07:56:29;18.10;99.90
23803;DHT22;12082;51.786;6.018;2023-08-01T07:58:55;17.90;99.90
23803;DHT22;12082;51.786;6.018;2023-08-01T08:01:21;18.30;99.90
23803;DHT22;12082;51.786;6.018;2023-08-01T08:03:46;19.20;99.90
23803;DHT22;12082;51.786;6.018;2023-08-01T08:06:12;18.90;99.90
23803;DHT22;12082;51.786;6.018;2023-08-01T08:08:37;18.40;99.90
23803;DHT22;12082;51.786;6.018;2023-08-01T08:11:03;18.10;99.90
23803;DHT22;12082;51.786;6.018;2023-08-01T08:13:29;17.80;99.90
23803;DHT22;12082;51.786;6.018;2023-08-01T08:15:59;17.80;99.90
23803;DHT22;12082;51.786;6.018;2023-08-01T08:18:24;18.30;99.90
23803;DHT22;12082;51.786;6.018;2023-08-01T08:20:50;18.70;99.90
23803;DHT22;12082;51.786;6.018;2023-08-01T08:23:16;19.00;99.90
23803;DHT22;12082;51.786;6.018;2023-08-01T08:25:44;18.50;99.90
23803;DHT22;12082;51.786;6.018;2023-08-01T08:28:13;17.90;99.90
23803;DHT22;12082;51.786;6.018;2023-08-01T08:30:39;17.70;99.90
23803;DHT22;12082;51.786;6.018;2023-08-01T08:33:04;17.30;99.90
23803;DHT22;12082;51.786;6.018;2023-08-01T08:35:35;17.00;99.90
23803;DHT22;12082;51.786;6.018;2023-08-01T08:38:02;16.50;99.90
23803;DHT22;12082;51.786;6.018;2023-08-01T08:40:28;16.30;99.90
23803;DHT22;12082;51.786;6.018;2023-08-01T08:42:54;16.30;99.90
23803;DHT22;12082;51.786;6.018;2023-08-01T08:45:20;16.50;99.90
23803;DHT22;12082;51.786;6.018;2023-08-01T08:47:53;16.70;99.90
23803;DHT22;12082;51.786;6.018;2023-08-01T08:50:20;17.10;99.90
23803;DHT22;12082;51.786;6.018;2023-08-01T08:52:46;17.70;99.90
23803;DHT22;12082;51.786;6.018;2023-08-01T08:55:12;17.80;99.90
23803;DHT22;12082;51.786;6.018;2023-08-01T08:57:38;17.80;99.90
23803;DHT22;12082;51.786;6.018;2023-08-01T09:00:05;17.80;99.90
23803;DHT22;12082;51.786;6.018;2023-08-01T09:02:32;18.20;99.90
23803;DHT22;12082;51.786;6.018;2023-08-01T09:04:59;18.60;99.90
23803;DHT22;12082;51.786;6.018;2023-08-01T09:07:29;19.30;99.90
23803;DHT22;12082;51.786;6.018;2023-08-01T09:09:55;18.90;99.90
23803;DHT22;12082;51.786;6.018;2023-08-01T09:12:21;18.80;99.90
23803;DHT22;12082;51.786;6.018;2023-08-01T09:14:49;18.80;99.90
23803;DHT22;12082;51.786;6.018;2023-08-01T09:17:15;18.90;99.90
23803;DHT22;12082;51.786;6.018;2023-08-01T09:19:43;19.00;99.90
23803;DHT22;12082;51.786;6.018;2023-08-01T09:22:13;18.90;99.90
23803;DHT22;12082;51.786;6.018;2023-08-01T09:24:38;19.10;99.90
23803;DHT22;12082;51.786;6.018;2023-08-01T09:27:04;19.00;99.90
23803;DHT22;12082;51.786;6.018;2023-08-01T09:29:31;19.10;99.90
23803;DHT22;12082;51.786;6.018;2023-08-01T09:31:59;18.90;99.90
23803;DHT22;12082;51.786;6.018;2023-08-01T09:34:27;18.80;99.90
23803;DHT22;12082;51.786;6.018;2023-08-01T09:37:01;19.20;99.90
23803;DHT22;12082;51.786;6.018;2023-08-01T09:39:27;19.00;99.90
23803;DHT22;12082;51.786;6.018;2023-08-01T09:42:01;19.00;99.90
23803;DHT22;12082;51.786;6.018;2023-08-01T09:44:28;19.80;99.90
23803;DHT22;12082;51.786;6.018;2023-08-01T09:47:00;20.10;99.90
23803;DHT22;12082;51.786;6.018;2023-08-01T09:49:27;20.50;99.90
23803;DHT22;12082;51.786;6.018;2023-08-01T09:51:53;19.50;99.90
23803;DHT22;12082;51.786;6.018;2023-08-01T09:54:20;19.10;99.90
23803;DHT22;12082;51.786;6.018;2023-08-01T09:56:48;18.90;99.90
23803;DHT22;12082;51.786;6.018;2023-08-01T09:59:19;18.60;99.90
23803;DHT22;12082;51.786;6.018;2023-08-01T10:01:50;18.50;99.90
23803;DHT22;12082;51.786;6.018;2023-08-01T10:04:21;18.40;99.90
23803;DHT22;12082;51.786;6.018;2023-08-01T10:06:53;18.50;99.90
23803;DHT22;12082;51.786;6.018;2023-08-01T10:09:21;18.40;99.90
23803;DHT22;12082;51.786;6.018;2023-08-01T10:11:48;18.50;99.90
23803;DHT22;12082;51.786;6.018;2023-08-01T10:14:15;18.50;99.90
23803;DHT22;12082;51.786;6.018;2023-08-01T10:16:42;18.70;99.90
23803;DHT22;12082;51.786;6.018;2023-08-01T10:19:09;19.00;99.90
23803;DHT22;12082;51.786;6.018;2023-08-01T10:21:35;19.30;99.90
23803;DHT22;12082;51.786;6.018;2023-08-01T10:24:03;19.50;99.90
23803;DHT22;12082;51.786;6.018;2023-08-01T10:26:30;19.50;99.90
23803;DHT22;12082;51.786;6.018;2023-08-01T10:28:56;19.70;99.90
23803;DHT22;12082;51.786;6.018;2023-08-01T10:31:24;19.80;99.90
23803;DHT22;12082;51.786;6.018;2023-08-01T10:33:50;20.00;99.90
23803;DHT22;12082;51.786;6.018;2023-08-01T10:36:17;20.30;99.90
23803;DHT22;12082;51.786;6.018;2023-08-01T10:38:54;20.20;99.90
23803;DHT22;12082;51.786;6.018;2023-08-01T10:44:14;20.10;99.90
23803;DHT22;12082;51.786;6.018;2023-08-01T10:47:00;20.10;99.90
23803;DHT22;12082;51.786;6.018;2023-08-01T10:49:43;19.90;99.90
23803;DHT22;12082;51.786;6.018;2023-08-01T10:54:42;20.00;99.90
23803;DHT22;12082;51.786;6.018;2023-08-01T10:57:08;20.20;99.90
23803;DHT22;12082;51.786;6.018;2023-08-01T10:59:34;20.00;99.90
23803;DHT22;12082;51.786;6.018;2023-08-01T11:02:00;19.20;99.90
23803;DHT22;12082;51.786;6.018;2023-08-01T11:04:27;18.70;99.90
23803;DHT22;12082;51.786;6.018;2023-08-01T11:06:54;18.30;99.90
23803;DHT22;12082;51.786;6.018;2023-08-01T11:09:25;18.40;99.90
23803;DHT22;12082;51.786;6.018;2023-08-01T11:11:53;18.60;99.90
23803;DHT22;12082;51.786;6.018;2023-08-01T11:14:21;18.70;99.90
23803;DHT22;12082;51.786;6.018;2023-08-01T11:16:48;18.90;99.90
23803;DHT22;12082;51.786;6.018;2023-08-01T11:19:22;19.40;99.90
23803;DHT22;12082;51.786;6.018;2023-08-01T11:21:48;19.70;99.90
23803;DHT22;12082;51.786;6.018;2023-08-01T11:24:14;19.90;99.90
23803;DHT22;12082;51.786;6.018;2023-08-01T11:26:41;20.20;99.90
23803;DHT22;12082;51.786;6.018;2023-08-01T11:29:07;20.20;99.90
23803;DHT22;12082;51.786;6.018;2023-08-01T11:31:33;20.60;99.90
23803;DHT22;12082;51.786;6.018;2023-08-01T11:33:59;20.40;99.90
23803;DHT22;12082;51.786;6.018;2023-08-01T11:36:26;20.10;99.90
23803;DHT22;12082;51.786;6.018;2023-08-01T11:38:52;20.20;99.90
23803;DHT22;12082;51.786;6.018;2023-08-01T11:41:18;20.40;99.90
23803;DHT22;12082;51.786;6.018;2023-08-01T11:43:44;20.50;99.90
23803;DHT22;12082;51.786;6.018;2023-08-01T11:46:10;20.40;99.90
23803;DHT22;12082;51.786;6.018;2023-08-01T11:48:36;20.40;99.90
23803;DHT22;12082;51.786;6.018;2023-08-01T11:51:02;20.10;99.90
23803;DHT22;12082;51.786;6.018;2023-08-01T11:53:28;19.90;99.90
23803;DHT22;12082;51.786;6.018;2023-08-01T11:55:55;19.80;99.90
23803;DHT22;12082;51.786;6.018;2023-08-01T11:58:30;19.90;99.90
23803;DHT22;12082;51.786;6.018;2023-08-01T12:01:06;20.20;99.90
23803;DHT22;12082;51.786;6.018;2023-08-01T12:03:32;20.30;99.90
23803;DHT22;12082;51.786;6.018;2023-08-01T12:06:07;20.40;99.90
23803;DHT22;12082;51.786;6.018;2023-08-01T12:08:33;20.10;99.90
23803;DHT22;12082;51.786;6.018;2023-08-01T12:11:00;20.20;99.90
23803;DHT22;12082;51.786;6.018;2023-08-01T12:13:26;20.20;99.90
23803;DHT22;12082;51.786;6.018;2023-08-01T12:15:53;20.40;99.90
23803;DHT22;12082;51.786;6.018;2023-08-01T12:18:21;20.40;99.90
23803;DHT22;12082;51.786;6.018;2023-08-01T12:20:47;20.30;99.90
23803;DHT22;12082;51.786;6.018;2023-08-01T12:23:12;20.50;99.90
23803;DHT22;12082;51.786;6.018;2023-08-01T12:25:38;20.50;99.90
23803;DHT22;12082;51.786;6.018;2023-08-01T12:28:03;20.60;99.90
23803;DHT22;12082;51.786;6.018;2023-08-01T12:30:29;20.60;99.90
23803;DHT22;12082;51.786;6.018;2023-08-01T12:32:54;20.70;99.90
23803;DHT22;12082;51.786;6.018;2023-08-01T12:35:20;20.60;99.90
23803;DHT22;12082;51.786;6.018;2023-08-01T12:37:45;20.70;99.90
23803;DHT22;12082;51.786;6.018;2023-08-01T12:40:11;21.00;99.90
23803;DHT22;12082;51.786;6.018;2023-08-01T12:42:37;21.40;99.90
23803;DHT22;12082;51.786;6.018;2023-08-01T12:45:02;21.30;99.90
23803;DHT22;12082;51.786;6.018;2023-08-01T12:47:28;21.10;99.90
23803;DHT22;12082;51.786;6.018;2023-08-01T12:49:54;21.20;99.90
23803;DHT22;12082;51.786;6.018;2023-08-01T12:52:24;21.30;99.90
23803;DHT22;12082;51.786;6.018;2023-08-01T12:54:50;21.30;99.90
23803;DHT22;12082;51.786;6.018;2023-08-01T12:57:15;20.80;99.90
23803;DHT22;12082;51.786;6.018;2023-08-01T12:59:41;20.50;99.90
23803;DHT22;12082;51.786;6.018;2023-08-01T13:02:06;20.20;99.90
23803;DHT22;12082;51.786;6.018;2023-08-01T13:04:34;20.00;99.90
23803;DHT22;12082;51.786;6.018;2023-08-01T13:06:59;20.10;99.90
23803;DHT22;12082;51.786;6.018;2023-08-01T13:09:25;20.10;99.90
23803;DHT22;12082;51.786;6.018;2023-08-01T13:11:51;20.20;99.90
23803;DHT22;12082;51.786;6.018;2023-08-01T13:14:16;20.00;99.90
23803;DHT22;12082;51.786;6.018;2023-08-01T13:16:42;19.80;99.90
23803;DHT22;12082;51.786;6.018;2023-08-01T13:19:07;19.70;99.90
23803;DHT22;12082;51.786;6.018;2023-08-01T13:21:33;19.80;99.90
23803;DHT22;12082;51.786;6.018;2023-08-01T13:24:00;19.70;99.90
23803;DHT22;12082;51.786;6.018;2023-08-01T13:26:30;19.80;99.90
23803;DHT22;12082;51.786;6.018;2023-08-01T13:28:56;20.10;99.90
23803;DHT22;12082;51.786;6.018;2023-08-01T13:31:21;20.70;99.90
23803;DHT22;12082;51.786;6.018;2023-08-01T13:33:47;20.70;99.90
23803;DHT22;12082;51.786;6.018;2023-08-01T13:36:13;21.20;99.90
23803;DHT22;12082;51.786;6.018;2023-08-01T13:38:38;21.50;99.90
23803;DHT22;12082;51.786;6.018;2023-08-01T13:41:04;21.00;99.90
23803;DHT22;12082;51.786;6.018;2023-08-01T13:43:29;21.10;99.90
23803;DHT22;12082;51.786;6.018;2023-08-01T13:45:55;21.70;99.90
23803;DHT22;12082;51.786;6.018;2023-08-01T13:48:21;22.10;99.90
23803;DHT22;12082;51.786;6.018;2023-08-01T13:50:46;21.70;99.90
23803;DHT22;12082;51.786;6.018;2023-08-01T13:53:13;21.80;99.90
23803;DHT22;12082;51.786;6.018;2023-08-01T13:55:39;22.00;99.90
23803;DHT22;12082;51.786;6.018;2023-08-01T13:58:05;22.50;99.90
23803;DHT22;12082;51.786;6.018;2023-08-01T14:00:32;23.10;99.90
23803;DHT22;12082;51.786;6.018;2023-08-01T14:02:57;23.10;99.90
23803;DHT22;12082;51.786;6.018;2023-08-01T14:05:26;23.00;99.90
23803;DHT22;12082;51.786;6.018;2023-08-01T14:07:52;22.70;99.90
23803;DHT22;12082;51.786;6.018;2023-08-01T14:10:19;22.40;99.90
23803;DHT22;12082;51.786;6.018;2023-08-01T14:12:44;22.30;99.90
23803;DHT22;12082;51.786;6.018;2023-08-01T14:15:10;21.80;99.90
23803;DHT22;12082;51.786;6.018;2023-08-01T14:17:37;22.30;99.90
23803;DHT22;12082;51.786;6.018;2023-08-01T14:20:03;22.50;99.90
23803;DHT22;12082;51.786;6.018;2023-08-01T14:22:32;22.90;99.90
23803;DHT22;12082;51.786;6.018;2023-08-01T14:24:58;23.10;99.90
23803;DHT22;12082;51.786;6.018;2023-08-01T14:27:23;23.30;99.90
23803;DHT22;12082;51.786;6.018;2023-08-01T14:29:49;23.20;99.90
23803;DHT22;12082;51.786;6.018;2023-08-01T14:32:19;23.20;99.90
23803;DHT22;12082;51.786;6.018;2023-08-01T14:34:45;23.20;99.90
23803;DHT22;12082;51.786;6.018;2023-08-01T14:37:10;23.20;99.90
23803;DHT22;12082;51.786;6.018;2023-08-01T14:39:36;22.80;99.90
23803;DHT22;12082;51.786;6.018;2023-08-01T14:42:01;22.70;99.90
23803;DHT22;12082;51.786;6.018;2023-08-01T14:44:27;22.40;99.90
23803;DHT22;12082;51.786;6.018;2023-08-01T14:46:53;22.20;99.90
23803;DHT22;12082;51.786;6.018;2023-08-01T14:49:20;23.10;99.90
23803;DHT22;12082;51.786;6.018;2023-08-01T14:51:47;22.90;99.90
23803;DHT22;12082;51.786;6.018;2023-08-01T14:54:13;22.90;99.90
23803;DHT22;12082;51.786;6.018;2023-08-01T14:56:38;22.70;99.90
23803;DHT22;12082;51.786;6.018;2023-08-01T14:59:04;22.70;99.90
23803;DHT22;12082;51.786;6.018;2023-08-01T15:01:29;23.10;99.90
23803;DHT22;12082;51.786;6.018;2023-08-01T15:03:55;23.30;99.90
23803;DHT22;12082;51.786;6.018;2023-08-01T15:06:21;23.40;99.90
23803;DHT22;12082;51.786;6.018;2023-08-01T15:08:46;23.70;99.90
23803;DHT22;12082;51.786;6.018;2023-08-01T15:11:12;23.80;99.90
23803;DHT22;12082;51.786;6.018;2023-08-01T15:13:37;24.10;99.90
23803;DHT22;12082;51.786;6.018;2023-08-01T15:16:04;24.50;99.90
23803;DHT22;12082;51.786;6.018;2023-08-01T15:18:29;24.00;99.90
23803;DHT22;12082;51.786;6.018;2023-08-01T15:20:55;24.30;99.90
23803;DHT22;12082;51.786;6.018;2023-08-01T15:23:21;23.50;99.90
23803;DHT22;12082;51.786;6.018;2023-08-01T15:25:57;23.30;99.90
23803;DHT22;12082;51.786;6.018;2023-08-01T15:28:24;22.80;99.90